Time;durP1;ratioP1;P1;durP2;ratioP2;P2;SDS_P1;SDS_P2;PMS_P1;PMS_P2;Temp;Humidity;BMP_temperature;BMP_pressure;BME280_temperature;BME280_humidity;BME280_pressure;Samples;Min_cycle;Max_cycle;Signal;HPM_P1;HPM_P2
2022/08/14 00:02:14;;;;;;;10.88;6.07;;;;;;;19.99;64.96;98154.91;4485650;31;20549;-70
2022/08/14 00:04:42;;;;;;;8.55;5.35;;;;;;;20.03;64.81;98150.78;4485677;31;20621;-70
2022/08/14 00:07:12;;;;;;;9.30;5.85;;;;;;;20.06;64.71;98148.72;4485582;31;20118;-70
2022/08/14 00:09:44;;;;;;;7.62;5.68;;;;;;;20.34;64.06;98149.16;4485633;31;20100;-70
2022/08/14 00:12:34;;;;;;;8.63;5.53;;;;;;;20.08;64.63;98150.16;4485686;31;20092;-70
2022/08/14 00:15:18;;;;;;;11.02;5.70;;;;;;;20.06;64.76;98149.56;4485659;32;20262;-70
2022/08/14 00:17:49;;;;;;;8.75;5.87;;;;;;;19.99;64.99;98154.91;4485672;31;20137;-70
2022/08/14 00:20:26;;;;;;;9.38;5.97;;;;;;;20.17;64.75;98151.53;4485621;31;20084;-70
2022/08/14 00:22:58;;;;;;;14.00;5.28;;;;;;;20.24;64.08;98151.47;4485532;31;20595;-70
2022/08/14 00:25:42;;;;;;;7.87;5.30;;;;;;;20.07;65.10;98147.72;4485591;31;20089;-70
2022/08/14 00:28:25;;;;;;;7.03;5.28;;;;;;;20.02;65.43;98149.16;4485540;31;20095;-70
2022/08/14 00:30:58;;;;;;;6.62;4.97;;;;;;;19.95;65.67;98143.06;4485572;31;20100;-70
2022/08/14 00:33:27;;;;;;;8.15;5.10;;;;;;;19.91;66.08;98141.87;4485462;31;20131;-70
2022/08/14 00:36:16;;;;;;;5.75;4.37;;;;;;;19.93;66.31;98139.81;4485316;32;20478;-70
2022/08/14 00:39:03;;;;;;;8.30;5.43;;;;;;;19.94;66.36;98141.44;4485440;31;20084;-70
2022/08/14 00:41:35;;;;;;;6.78;4.87;;;;;;;19.90;66.59;98145.53;4485600;31;20081;-70
2022/08/14 00:44:06;;;;;;;10.70;5.22;;;;;;;19.96;66.40;98133.25;4485647;31;20097;-70
2022/08/14 00:46:36;;;;;;;11.38;5.22;;;;;;;19.94;66.61;98133.47;4485549;31;20152;-70
2022/08/14 00:49:04;;;;;;;7.57;4.87;;;;;;;19.92;66.93;98132.84;4485453;31;20370;-70
2022/08/14 00:51:33;;;;;;;8.98;4.82;;;;;;;19.87;67.17;98140.66;4485332;31;20092;-70
2022/08/14 00:54:08;;;;;;;8.15;4.72;;;;;;;20.05;67.22;98139.13;4485487;32;20105;-70
2022/08/14 00:56:51;;;;;;;7.32;4.78;;;;;;;19.80;67.93;98130.06;4485370;31;20080;-70
2022/08/14 00:59:27;;;;;;;9.80;4.53;;;;;;;19.78;68.19;98136.63;4485457;31;20068;-70
2022/08/14 01:01:57;;;;;;;6.82;4.70;;;;;;;19.77;68.41;98137.59;4485420;31;20637;-70
2022/08/14 01:04:27;;;;;;;7.43;4.72;;;;;;;19.77;68.70;98130.50;4485314;31;20072;-70
2022/08/14 01:07:21;;;;;;;7.32;4.65;;;;;;;19.78;68.94;98128.66;4484986;31;20439;-70
2022/08/14 01:10:03;;;;;;;6.40;4.70;;;;;;;19.78;69.29;98134.75;4484054;31;20535;-70
2022/08/14 01:12:32;;;;;;;8.05;4.82;;;;;;;19.80;69.29;98134.56;4485273;32;20080;-70
2022/08/14 01:15:07;;;;;;;7.47;4.70;;;;;;;19.73;69.71;98133.72;4485159;31;20080;-70
2022/08/14 01:23:15;;;;;;;8.50;5.05;;;;;;;19.46;71.02;98136.53;4485051;32;20143;-70
2022/08/14 01:25:47;;;;;;;7.12;5.20;;;;;;;19.50;71.21;98143.06;4485559;31;20131;-70
2022/08/14 01:28:14;;;;;;;8.00;5.20;;;;;;;19.42;71.37;98140.63;4485250;31;20432;-70
2022/08/14 01:31:14;;;;;;;13.25;4.97;;;;;;;19.27;71.59;98136.38;4485279;31;20076;-70
2022/08/14 01:33:45;;;;;;;6.35;5.25;;;;;;;19.10;72.70;98146.63;4485146;31;20077;-70
2022/08/14 01:36:36;;;;;;;9.43;4.75;;;;;;;19.03;72.46;98152.97;4484937;31;20097;-70
2022/08/14 01:39:08;;;;;;;6.40;4.53;;;;;;;18.91;72.53;98150.94;4484994;32;20445;-70
2022/08/14 01:41:42;;;;;;;7.87;5.03;;;;;;;18.91;72.71;98152.75;4485171;31;20449;-70
2022/08/14 01:44:14;;;;;;;6.87;4.78;;;;;;;19.22;72.19;98157.41;4485085;31;20115;-71
2022/08/14 01:47:12;;;;;;;6.95;5.20;;;;;;;18.94;72.78;98145.22;4485358;31;20388;-70
2022/08/14 01:49:50;;;;;;;7.18;5.35;;;;;;;18.91;73.13;98155.41;4485175;31;20110;-70
2022/08/14 01:52:35;;;;;;;7.20;5.03;;;;;;;18.93;72.81;98148.09;4484910;31;20129;-70
2022/08/14 01:55:29;;;;;;;6.90;4.90;;;;;;;18.83;73.23;98148.47;4485015;31;20077;-70
2022/08/14 01:57:57;;;;;;;10.48;5.68;;;;;;;18.79;73.59;98142.75;4485039;31;20089;-70
2022/08/14 02:00:45;;;;;;;7.53;5.12;;;;;;;18.82;73.42;98146.00;4484797;31;20466;-70
2022/08/14 02:03:15;;;;;;;7.10;5.45;;;;;;;18.74;74.03;98139.09;4485167;32;20454;-70
2022/08/14 02:05:42;;;;;;;9.80;5.47;;;;;;;18.72;74.03;98147.25;4484677;31;20548;-70
2022/08/14 02:08:09;;;;;;;7.90;5.20;;;;;;;18.71;74.78;98147.44;4484537;31;20099;-70
2022/08/14 02:10:41;;;;;;;7.62;4.93;;;;;;;18.68;74.61;98147.88;4484702;32;20487;-70
2022/08/14 02:13:15;;;;;;;7.35;5.10;;;;;;;18.66;74.81;98153.38;4484654;31;20099;-70
2022/08/14 02:15:44;;;;;;;8.35;5.40;;;;;;;18.60;75.14;98152.34;4484657;31;20080;-70
2022/08/14 02:18:15;;;;;;;7.78;5.82;;;;;;;18.43;75.80;98159.88;4484721;31;20076;-70
2022/08/14 02:20:46;;;;;;;7.45;5.43;;;;;;;18.41;76.21;98159.28;4484307;31;20153;-70
2022/08/14 02:23:14;;;;;;;9.32;6.07;;;;;;;18.43;76.78;98156.44;4484309;31;20081;-70
2022/08/14 02:25:50;;;;;;;9.68;6.05;;;;;;;18.50;76.65;98149.31;4484738;32;20138;-70
2022/08/14 02:28:21;;;;;;;9.95;5.97;;;;;;;18.52;76.91;98155.22;4484553;31;20084;-70
2022/08/14 02:31:09;;;;;;;15.68;6.55;;;;;;;18.53;77.10;98142.75;4484608;31;20115;-70
2022/08/14 02:33:41;;;;;;;9.65;6.00;;;;;;;18.57;76.91;98142.13;4484445;31;20148;-70
2022/08/14 02:36:10;;;;;;;10.15;6.18;;;;;;;18.57;77.15;98136.84;4484145;32;20093;-70
2022/08/14 02:38:57;;;;;;;10.73;5.43;;;;;;;18.58;77.11;98143.78;4468542;32;20175;-70
2022/08/14 02:41:25;;;;;;;10.10;5.97;;;;;;;18.59;76.21;98145.44;4468690;32;20096;-70
2022/08/14 02:43:54;;;;;;;8.23;5.90;;;;;;;18.51;76.10;98139.50;4468593;32;20154;-70
2022/08/14 02:46:29;;;;;;;10.07;5.75;;;;;;;18.47;76.33;98151.53;4468754;32;20089;-70
2022/08/14 02:48:58;;;;;;;8.82;5.90;;;;;;;18.38;77.13;98153.56;4468878;32;20209;-70
2022/08/14 02:51:35;;;;;;;8.20;5.35;;;;;;;18.34;78.46;98152.34;4468642;32;20093;-70
2022/08/14 02:54:05;;;;;;;8.55;6.22;;;;;;;18.31;78.98;98144.78;4468565;32;20077;-70
2022/08/14 02:56:37;;;;;;;10.15;6.72;;;;;;;18.30;79.49;98151.91;4468403;32;20116;-70
2022/08/14 02:59:28;;;;;;;8.60;5.80;;;;;;;18.29;79.46;98154.78;4468608;32;20134;-70
2022/08/14 03:02:01;;;;;;;11.38;6.40;;;;;;;18.22;80.15;98147.63;4468774;32;20093;-70
2022/08/14 03:04:29;;;;;;;8.07;5.43;;;;;;;18.20;80.29;98154.16;4466890;32;20458;-70
2022/08/14 03:06:57;;;;;;;8.75;6.25;;;;;;;18.14;80.70;98152.28;4480357;32;20139;-70
2022/08/14 03:09:38;;;;;;;11.63;7.07;;;;;;;18.20;81.26;98152.31;4484385;31;20097;-70
2022/08/14 03:12:25;;;;;;;11.27;6.22;;;;;;;18.18;81.90;98161.50;4484108;31;20088;-71
2022/08/14 03:15:01;;;;;;;10.40;5.93;;;;;;;18.15;81.87;98152.09;4483796;32;20132;-70
2022/08/14 03:17:30;;;;;;;11.43;6.47;;;;;;;18.06;79.83;98151.50;4483955;31;20117;-70
2022/08/14 03:20:18;;;;;;;10.05;6.57;;;;;;;18.00;80.58;98151.44;4483911;31;20084;-70
2022/08/14 03:22:48;;;;;;;10.02;7.22;;;;;;;18.02;82.06;98149.44;4484092;31;20092;-70
2022/08/14 03:25:17;;;;;;;11.52;6.50;;;;;;;18.03;82.80;98154.53;4483782;31;20404;-70
2022/08/14 03:27:45;;;;;;;10.55;7.12;;;;;;;18.03;82.92;98157.19;4483760;31;20100;-70
2022/08/14 03:30:26;;;;;;;12.32;7.87;;;;;;;18.15;83.44;98161.88;4483834;31;20093;-70
2022/08/14 03:33:11;;;;;;;13.98;8.45;;;;;;;18.17;83.94;98155.38;4484926;31;20068;-70
2022/08/14 03:35:41;;;;;;;12.85;8.18;;;;;;;18.22;84.45;98160.88;4485789;31;20104;-70
2022/08/14 03:38:29;;;;;;;11.38;7.70;;;;;;;18.24;84.35;98164.16;4485612;31;20112;-70
2022/08/14 03:41:27;;;;;;;15.88;8.48;;;;;;;18.27;84.50;98160.28;4485996;31;20089;-70
2022/08/14 03:44:00;;;;;;;12.50;7.20;;;;;;;18.32;84.49;98159.66;4485964;31;20084;-70
2022/08/14 03:46:50;;;;;;;10.98;7.68;;;;;;;18.32;84.78;98149.91;4485960;31;20103;-70
2022/08/14 03:49:23;;;;;;;14.77;7.90;;;;;;;18.35;85.02;98149.50;4486151;31;20085;-70
2022/08/14 03:51:56;;;;;;;12.33;7.97;;;;;;;18.38;84.74;98153.56;4486038;31;20115;-70
2022/08/14 03:54:28;;;;;;;11.73;7.35;;;;;;;18.35;85.47;98153.97;4486008;31;20135;-70
2022/08/14 03:56:59;;;;;;;11.73;7.72;;;;;;;18.42;85.28;98154.78;4485702;31;20216;-70
2022/08/14 03:59:30;;;;;;;14.13;8.05;;;;;;;18.40;85.42;98155.00;4485860;31;20112;-70
2022/08/14 04:01:59;;;;;;;15.73;8.20;;;;;;;18.46;85.18;98158.69;4486090;31;20402;-70
2022/08/14 04:04:29;;;;;;;11.95;8.18;;;;;;;18.51;85.17;98158.06;4485714;31;20493;-70
2022/08/14 04:06:58;;;;;;;12.50;7.65;;;;;;;18.52;85.15;98155.22;4485461;31;20568;-70
2022/08/14 04:09:26;;;;;;;14.85;8.20;;;;;;;18.54;85.03;98158.47;4485571;31;20213;-70
2022/08/14 04:11:53;;;;;;;13.15;8.38;;;;;;;18.58;85.31;98158.91;4485776;31;20709;-70
2022/08/14 04:14:24;;;;;;;13.57;8.32;;;;;;;18.62;85.35;98165.41;4485511;32;20147;-70
2022/08/14 04:16:51;;;;;;;11.82;8.00;;;;;;;18.71;84.93;98160.72;4485687;31;20080;-70
2022/08/14 04:19:22;;;;;;;14.00;8.70;;;;;;;18.78;84.58;98167.66;4485846;32;20093;-70
2022/08/14 04:21:49;;;;;;;12.65;7.75;;;;;;;18.83;84.33;98166.22;4486015;31;20096;-70
2022/08/14 04:24:31;;;;;;;11.40;7.25;;;;;;;18.87;84.14;98159.53;4485605;31;20092;-70
2022/08/14 04:27:10;;;;;;;12.30;8.20;;;;;;;18.97;83.77;98167.91;4485577;31;20590;-70
2022/08/14 04:29:39;;;;;;;12.23;8.30;;;;;;;19.01;83.30;98173.59;4485747;31;20096;-70
2022/08/14 04:32:09;;;;;;;10.90;7.40;;;;;;;19.13;82.60;98171.94;4485601;31;20099;-70
2022/08/14 04:34:57;;;;;;;12.48;7.20;;;;;;;19.18;82.27;98169.47;4485365;32;20115;-70
2022/08/14 04:43:39;;;;;;;10.57;7.22;;;;;;;19.47;80.63;98173.50;4451702;32;20121;-70
2022/08/14 04:46:13;;;;;;;11.88;7.50;;;;;;;19.61;79.75;98174.25;4451761;32;20165;-70
2022/08/14 04:49:02;;;;;;;9.68;6.90;;;;;;;19.64;79.39;98162.41;4451840;32;20112;-70
2022/08/14 04:51:34;;;;;;;;;;;;;;;19.83;78.32;98166.84;4452232;32;20124;-70
2022/08/14 04:54:25;;;;;;;11.63;7.00;;;;;;;19.96;77.59;98160.66;4451886;32;20357;-70
2022/08/14 04:56:54;;;;;;;11.57;7.47;;;;;;;20.17;76.75;98166.69;4451562;32;20120;-70
2022/08/14 04:59:23;;;;;;;10.65;7.28;;;;;;;20.30;75.56;98174.56;4451955;32;20077;-70
2022/08/14 05:01:52;;;;;;;11.15;8.05;;;;;;;20.29;75.42;98164.16;4451561;32;20195;-70
2022/08/14 05:04:23;;;;;;;11.48;7.43;;;;;;;20.48;74.53;98173.00;4451891;32;20178;-70
2022/08/14 05:06:53;;;;;;;10.77;7.53;;;;;;;20.72;73.72;98179.41;4451315;32;20157;-70
2022/08/14 05:09:24;;;;;;;11.12;7.72;;;;;;;20.87;72.73;98176.41;4451638;32;20637;-70
2022/08/14 05:11:57;;;;;;;11.02;7.20;;;;;;;20.94;72.11;98177.19;4451673;32;20486;-70
2022/08/14 05:14:45;;;;;;;13.35;7.43;;;;;;;21.04;71.66;98182.81;4477070;32;20092;-70
2022/08/14 05:17:24;;;;;;;12.60;7.53;;;;;;;21.09;71.22;98179.50;4483760;32;20092;-70
2022/08/14 05:19:58;;;;;;;13.43;7.55;;;;;;;21.19;70.76;98179.00;4485408;31;20106;-70
2022/08/14 05:22:45;;;;;;;13.32;7.55;;;;;;;21.46;69.60;98182.19;4485164;31;20108;-70
2022/08/14 05:25:12;;;;;;;10.65;7.15;;;;;;;21.60;69.02;98183.72;4485464;31;20109;-70
2022/08/14 05:27:40;;;;;;;11.55;7.35;;;;;;;21.72;68.56;98182.94;4485247;31;20457;-70
2022/08/14 05:30:09;;;;;;;8.85;6.97;;;;;;;21.79;68.14;98179.16;4485336;31;20088;-70
2022/08/14 05:32:37;;;;;;;9.85;7.00;;;;;;;21.81;68.29;98181.59;4485149;31;20096;-70
2022/08/14 05:35:05;;;;;;;10.95;7.35;;;;;;;21.89;68.05;98175.16;4485204;31;20159;-70
2022/08/14 05:37:34;;;;;;;9.73;6.93;;;;;;;21.91;67.92;98178.41;4484883;31;20119;-70
2022/08/14 05:40:01;;;;;;;10.30;7.50;;;;;;;21.87;67.93;98179.91;4485062;31;20444;-70
2022/08/14 05:42:28;;;;;;;9.23;7.10;;;;;;;21.82;68.50;98177.91;4484954;31;20521;-70
2022/08/14 05:45:02;;;;;;;9.70;7.18;;;;;;;21.87;68.16;98175.38;4485258;31;20115;-70
2022/08/14 05:47:30;;;;;;;10.05;7.12;;;;;;;21.90;68.49;98174.91;4484948;31;20100;-70
2022/08/14 05:50:11;;;;;;;10.73;6.75;;;;;;;21.94;67.96;98183.31;4485210;32;20568;-70
2022/08/14 05:52:46;;;;;;;8.85;6.90;;;;;;;22.18;67.02;98180.72;4485147;31;20112;-70
2022/08/14 05:55:15;;;;;;;13.43;6.32;;;;;;;22.40;66.43;98178.38;4484368;31;20101;-70
2022/08/14 05:57:54;;;;;;;9.35;6.78;;;;;;;22.50;65.67;98184.78;4484910;32;20096;-70
2022/08/14 06:00:27;;;;;;;8.73;6.22;;;;;;;22.60;64.71;98178.87;4485124;31;20092;-70
2022/08/14 06:03:04;;;;;;;7.12;6.25;;;;;;;22.58;65.02;98180.97;4484827;31;20092;-70
2022/08/14 06:05:33;;;;;;;14.55;6.62;;;;;;;22.73;64.74;98180.53;4484851;31;20167;-70
2022/08/14 06:08:05;;;;;;;10.32;6.30;;;;;;;22.82;64.29;98181.81;4484417;32;20080;-70
2022/08/14 06:10:52;;;;;;;11.05;6.50;;;;;;;22.86;64.32;98183.00;4484824;31;20091;-70
2022/08/14 06:13:20;;;;;;;8.68;6.00;;;;;;;22.99;63.73;98181.13;4484869;31;20103;-70
2022/08/14 06:15:49;;;;;;;9.93;7.18;;;;;;;23.07;63.77;98183.44;4484929;31;20145;-70
2022/08/14 06:18:19;;;;;;;8.57;6.45;;;;;;;23.32;62.49;98182.44;4484541;31;20088;-70
2022/08/14 06:20:51;;;;;;;9.82;6.60;;;;;;;23.36;62.07;98183.56;4484832;31;20089;-71
2022/08/14 06:23:23;;;;;;;8.15;5.97;;;;;;;23.46;61.65;98181.13;4484558;31;20096;-70
2022/08/14 06:25:53;;;;;;;11.25;6.78;;;;;;;23.61;60.93;98171.81;4484626;31;20096;-70
2022/08/14 06:28:24;;;;;;;10.23;6.40;;;;;;;23.95;59.96;98180.78;4484364;31;20093;-70
2022/08/14 06:30:54;;;;;;;;;;;;;;;24.13;59.22;98174.41;4485065;31;20102;-70
2022/08/14 06:33:22;;;;;;;8.23;6.22;;;;;;;24.25;58.91;98177.88;4484417;32;20361;-71
2022/08/14 06:36:09;;;;;;;9.93;7.15;;;;;;;23.88;59.23;98175.56;4484420;31;20088;-70
2022/08/14 06:38:37;;;;;;;9.88;5.80;;;;;;;23.76;59.67;98180.13;4483907;32;20092;-71
2022/08/14 06:41:04;;;;;;;8.98;5.93;;;;;;;23.95;59.64;98178.09;4484503;31;20092;-70
2022/08/14 06:43:37;;;;;;;9.90;5.90;;;;;;;24.05;59.26;98180.16;4484389;31;20085;-70
2022/08/14 06:46:11;;;;;;;9.20;6.35;;;;;;;24.31;58.40;98168.03;4484414;31;20378;-70
2022/08/14 06:48:49;;;;;;;11.32;6.95;;;;;;;24.20;58.71;98174.28;4484280;31;20088;-70
2022/08/14 06:51:16;;;;;;;10.57;6.25;;;;;;;24.03;59.01;98168.91;4484265;31;20096;-70
2022/08/14 06:53:44;;;;;;;7.45;5.97;;;;;;;24.35;57.84;98171.06;4484125;31;20119;-70
2022/08/14 06:56:13;;;;;;;8.90;6.12;;;;;;;24.51;57.58;98162.25;4484109;31;20465;-69
2022/08/14 06:58:40;;;;;;;8.85;5.60;;;;;;;24.48;57.58;98170.75;4484078;31;20096;-68
2022/08/14 07:06:52;;;;;;;8.27;5.70;;;;;;;24.55;57.09;98160.69;4483761;31;20108;-68
2022/08/14 07:09:26;;;;;;;10.40;6.07;;;;;;;24.73;56.99;98167.69;4485850;31;20089;-69
2022/08/14 07:11:54;;;;;;;10.23;5.65;;;;;;;25.04;55.75;98162.00;4486385;31;20136;-68
2022/08/14 07:14:22;;;;;;;9.70;5.95;;;;;;;25.09;56.23;98159.41;4485863;31;20136;-68
2022/08/14 07:16:49;;;;;;;11.32;5.60;;;;;;;25.29;54.63;98169.59;4486179;31;20084;-68
2022/08/14 07:19:17;;;;;;;7.97;5.82;;;;;;;25.04;55.10;98164.66;4485906;32;20084;-69
2022/08/14 07:21:47;;;;;;;16.02;6.00;;;;;;;24.98;55.72;98169.97;4486164;31;20137;-68
2022/08/14 07:24:17;;;;;;;9.05;5.75;;;;;;;25.19;54.60;98164.87;4485973;32;20114;-68
2022/08/14 07:26:52;;;;;;;7.80;6.00;;;;;;;25.44;53.86;98166.31;4486130;31;20156;-68
2022/08/14 07:29:21;;;;;;;8.52;5.60;;;;;;;25.40;53.92;98170.56;4485886;31;20441;-68
2022/08/14 07:31:52;;;;;;;9.43;6.15;;;;;;;25.48;54.35;98162.06;4485931;31;20080;-69
2022/08/14 07:34:20;;;;;;;8.73;6.05;;;;;;;25.66;53.46;98166.31;4486246;31;20108;-68
2022/08/14 07:37:04;;;;;;;10.82;6.40;;;;;;;25.87;53.75;98159.31;4485832;31;20135;-69
2022/08/14 07:39:32;;;;;;;8.70;6.53;;;;;;;25.84;52.61;98170.53;4485766;31;20096;-68
2022/08/14 07:42:01;;;;;;;8.80;5.90;;;;;;;25.65;53.44;98170.06;4486030;31;20152;-68
2022/08/14 07:44:28;;;;;;;8.98;6.00;;;;;;;25.58;53.38;98170.25;4485778;31;20100;-69
2022/08/14 07:47:14;;;;;;;9.95;6.25;;;;;;;25.54;53.65;98168.31;4486280;31;20100;-69
2022/08/14 07:49:58;;;;;;;9.05;6.45;;;;;;;25.74;53.27;98165.88;4485892;31;20419;-69
2022/08/14 07:52:27;;;;;;;8.30;6.05;;;;;;;25.84;52.77;98171.37;4484748;32;20137;-69
2022/08/14 07:54:57;;;;;;;9.68;5.85;;;;;;;26.10;52.05;98163.63;4485903;31;20089;-69
2022/08/14 07:57:25;;;;;;;9.35;6.40;;;;;;;26.37;52.10;98157.41;4485714;31;20097;-69
2022/08/14 07:59:52;;;;;;;7.45;5.57;;;;;;;26.59;50.84;98148.44;4485705;31;20120;-69
2022/08/14 08:02:20;;;;;;;7.22;6.00;;;;;;;26.65;50.67;98150.94;4485784;31;20149;-69
2022/08/14 08:04:52;;;;;;;7.05;5.90;;;;;;;26.82;50.01;98158.06;4485588;31;20089;-69
2022/08/14 08:07:25;;;;;;;7.87;5.68;;;;;;;26.90;50.05;98154.88;4485511;31;20092;-69
2022/08/14 08:09:58;;;;;;;9.45;6.03;;;;;;;27.15;49.64;98158.81;4485636;31;20088;-69
2022/08/14 08:12:27;;;;;;;12.52;6.15;;;;;;;27.17;48.82;98159.34;4486054;31;20103;-69
2022/08/14 08:14:58;;;;;;;9.73;6.75;;;;;;;27.20;48.93;98158.84;4485535;31;20108;-69
2022/08/14 08:17:38;;;;;;;10.75;5.65;;;;;;;27.38;47.61;98158.41;4484527;32;20088;-69
2022/08/14 08:20:25;;;;;;;7.15;5.40;;;;;;;27.47;47.82;98163.31;4485553;31;20096;-69
2022/08/14 08:22:57;;;;;;;6.95;5.70;;;;;;;27.55;46.92;98155.53;4485660;31;20072;-69
2022/08/14 08:25:31;;;;;;;;;;;;;;;27.48;46.83;98148.78;4485919;32;20427;-69
2022/08/14 08:28:07;;;;;;;9.23;5.97;;;;;;;27.34;47.25;98149.25;4485711;31;19984;-69
2022/08/14 08:30:50;;;;;;;7.60;5.20;;;;;;;27.35;46.44;98150.06;4485755;31;20114;-69
2022/08/14 08:33:18;;;;;;;7.68;6.28;;;;;;;27.52;46.22;98147.19;4485567;31;20080;-69
2022/08/14 08:35:47;;;;;;;10.02;6.80;;;;;;;27.37;46.97;98146.03;4485327;31;20092;-69
2022/08/14 08:38:19;;;;;;;7.75;5.85;;;;;;;26.85;47.80;98146.81;4485270;31;20084;-69
2022/08/14 08:41:09;;;;;;;7.35;5.85;;;;;;;26.96;46.57;98151.16;4484428;32;20163;-69
2022/08/14 08:43:38;;;;;;;7.72;5.62;;;;;;;27.14;46.40;98149.13;4485745;31;20434;-69
2022/08/14 08:46:14;;;;;;;8.68;6.07;;;;;;;27.40;46.14;98144.72;4485495;31;20128;-69
2022/08/14 08:48:52;;;;;;;9.73;6.25;;;;;;;27.73;46.92;98153.44;4485614;31;20133;-69
2022/08/14 08:51:28;;;;;;;9.00;6.40;;;;;;;28.08;46.06;98151.94;4485516;32;20144;-69
2022/08/14 08:54:08;;;;;;;9.77;5.93;;;;;;;28.29;45.26;98152.78;4485427;31;20152;-69
2022/08/14 08:56:52;;;;;;;7.72;6.28;;;;;;;28.21;44.89;98142.56;4485322;31;20426;-69
2022/08/14 08:59:29;;;;;;;8.35;6.80;;;;;;;28.54;45.29;98140.38;4485586;31;20088;-69
2022/08/14 09:02:06;;;;;;;9.32;6.03;;;;;;;28.62;46.01;98129.91;4485333;31;20114;-69
2022/08/14 09:04:43;;;;;;;8.68;6.37;;;;;;;28.75;46.02;98133.94;4485397;31;20087;-69
2022/08/14 09:07:25;;;;;;;8.55;6.47;;;;;;;28.97;45.38;98130.94;4485127;31;20557;-69
2022/08/14 09:09:55;;;;;;;8.02;6.32;;;;;;;28.99;45.01;98136.88;4485298;31;20127;-69
2022/08/14 09:12:28;;;;;;;9.10;6.10;;;;;;;29.20;44.14;98128.72;4485364;31;20088;-69
2022/08/14 09:15:05;;;;;;;10.68;6.82;;;;;;;29.31;43.82;98137.59;4485268;31;20104;-69
2022/08/14 09:17:40;;;;;;;11.05;6.50;;;;;;;28.93;43.74;98137.94;4482634;31;81347;-69
2022/08/14 09:20:10;;;;;;;7.55;6.10;;;;;;;29.05;43.83;98137.66;4485383;31;20156;-69
2022/08/14 09:22:42;;;;;;;7.65;5.90;;;;;;;29.32;43.36;98128.44;4483876;32;20468;-69
2022/08/14 09:25:15;;;;;;;8.88;6.32;;;;;;;29.29;43.42;98127.09;4485355;31;20092;-69
2022/08/14 09:27:43;;;;;;;9.43;6.78;;;;;;;29.04;44.01;98125.25;4485157;32;20166;-69
2022/08/14 09:30:10;;;;;;;9.43;6.75;;;;;;;28.92;43.96;98122.88;4483861;31;20119;-69
2022/08/14 09:33:00;;;;;;;10.25;6.00;;;;;;;28.82;43.46;98120.97;4485301;31;20083;-69
2022/08/14 09:35:56;;;;;;;9.48;6.25;;;;;;;29.25;43.65;98119.81;4485371;31;20064;-69
2022/08/14 09:38:42;;;;;;;8.55;5.78;;;;;;;29.65;42.29;98116.13;4484776;31;20104;-69
2022/08/14 09:41:31;;;;;;;6.78;5.85;;;;;;;30.08;41.46;98111.06;4485039;31;20430;-69
2022/08/14 09:44:37;;;;;;;8.63;6.62;;;;;;;30.23;39.77;98104.69;4485332;32;20480;-69
2022/08/14 09:47:04;;;;;;;8.45;6.43;;;;;;;29.95;40.60;98121.66;4485263;32;20102;-69
2022/08/14 09:49:38;;;;;;;10.55;6.32;;;;;;;30.33;39.08;98114.62;4484948;32;20528;-69
2022/08/14 09:52:12;;;;;;;7.50;6.03;;;;;;;30.40;39.20;98111.63;4485167;31;20115;-69
2022/08/14 09:54:59;;;;;;;9.47;5.40;;;;;;;30.37;37.64;98104.88;4485334;31;20076;-69
2022/08/14 09:57:29;;;;;;;9.88;5.97;;;;;;;30.00;38.72;98103.53;4484971;31;20088;-69
2022/08/14 09:59:57;;;;;;;6.12;4.78;;;;;;;30.49;38.81;98099.09;4484925;31;20141;-69
2022/08/14 10:02:30;;;;;;;7.12;4.90;;;;;;;30.92;35.18;98101.16;4483555;32;20135;-69
2022/08/14 10:05:09;;;;;;;7.25;5.15;;;;;;;30.84;34.81;98091.75;4483636;32;20453;-69
2022/08/14 10:07:49;;;;;;;5.93;4.50;;;;;;;31.25;34.99;98102.16;4469188;32;20095;-69
2022/08/14 10:10:37;;;;;;;5.53;4.87;;;;;;;31.28;33.36;98098.84;4469530;32;20088;-69
2022/08/14 10:13:19;;;;;;;5.18;4.68;;;;;;;31.15;31.22;98099.56;4469183;32;20106;-69
2022/08/14 10:15:50;;;;;;;6.03;4.30;;;;;;;31.37;33.02;98103.63;4469141;32;20108;-69
2022/08/14 10:18:19;;;;;;;4.65;4.15;;;;;;;31.08;31.09;98099.09;4469017;32;20126;-69
2022/08/14 10:20:59;;;;;;;5.32;4.10;;;;;;;31.26;32.12;98095.63;4469036;32;20141;-69
2022/08/14 10:23:42;;;;;;;5.65;3.87;;;;;;;31.50;31.67;98094.78;4468921;32;20126;-69
2022/08/14 10:26:09;;;;;;;4.62;3.62;;;;;;;31.58;30.23;98104.19;4469103;32;20084;-69
2022/08/14 10:28:50;;;;;;;6.60;3.22;;;;;;;31.64;26.93;98103.84;4468954;32;20084;-69
2022/08/14 10:31:38;;;;;;;5.00;3.20;;;;;;;31.93;27.02;98107.47;4469013;32;20128;-69
2022/08/14 10:34:17;;;;;;;5.47;3.67;;;;;;;31.81;26.77;98094.38;4468824;32;20210;-69
2022/08/14 10:36:47;;;;;;;5.30;4.78;;;;;;;31.36;27.57;98102.03;4467374;32;20486;-69
2022/08/14 10:39:19;;;;;;;4.70;4.05;;;;;;;31.63;30.26;98102.22;4468538;32;20085;-69
2022/08/14 10:41:48;;;;;;;7.22;4.75;;;;;;;32.07;30.83;98094.00;4469571;32;20107;-69
2022/08/14 10:44:24;;;;;;;6.15;4.75;;;;;;;32.31;29.96;98096.63;4470727;32;20576;-69
2022/08/14 10:46:57;;;;;;;5.03;4.35;;;;;;;32.37;29.21;98101.66;4470648;32;20096;-69
2022/08/14 10:49:59;;;;;;;5.32;4.80;;;;;;;32.47;27.74;98092.53;4470636;32;20784;-69
2022/08/14 10:52:31;;;;;;;5.50;4.70;;;;;;;31.83;28.09;98095.72;4470380;32;20093;-69
2022/08/14 10:55:07;;;;;;;4.68;4.28;;;;;;;32.05;28.44;98093.50;4470791;32;20092;-69
2022/08/14 10:57:45;;;;;;;5.05;4.55;;;;;;;32.15;28.57;98087.94;4470504;32;20517;-69
2022/08/14 11:00:16;;;;;;;6.62;4.87;;;;;;;32.38;28.10;98086.19;4470706;32;20158;-69
2022/08/14 11:03:08;;;;;;;5.55;4.87;;;;;;;31.95;29.03;98092.56;4470522;32;20146;-69
2022/08/14 11:05:43;;;;;;;5.90;4.82;;;;;;;31.66;28.68;98081.88;4474206;32;20156;-69
2022/08/14 11:08:13;;;;;;;6.93;4.45;;;;;;;31.95;28.05;98079.00;4486009;31;20080;-69
2022/08/14 11:10:45;;;;;;;5.00;4.32;;;;;;;32.08;27.96;98071.22;4486312;31;20080;-69
2022/08/14 11:13:18;;;;;;;5.07;4.45;;;;;;;32.16;27.16;98076.03;4486017;31;20386;-69
2022/08/14 11:15:47;;;;;;;4.97;4.30;;;;;;;31.62;27.66;98070.81;4486200;32;20450;-69
2022/08/14 11:18:16;;;;;;;7.95;4.55;;;;;;;31.89;28.04;98069.34;4485962;31;20632;-69
2022/08/14 11:21:00;;;;;;;5.28;4.75;;;;;;;32.11;29.89;98066.03;4486090;31;20399;-69
2022/08/14 11:23:38;;;;;;;7.62;4.50;;;;;;;32.35;27.95;98060.47;4485950;31;20430;-69
2022/08/14 11:26:11;;;;;;;5.85;4.35;;;;;;;32.31;28.30;98059.50;4486068;32;20092;-69
2022/08/14 11:28:42;;;;;;;5.00;4.50;;;;;;;32.40;28.47;98061.50;4485981;31;20088;-69
2022/08/14 11:31:22;;;;;;;5.12;4.65;;;;;;;32.46;28.77;98053.00;4486133;31;20084;-69
2022/08/14 11:33:54;;;;;;;5.15;4.60;;;;;;;33.15;27.95;98054.94;4486230;31;20084;-69
2022/08/14 11:36:27;;;;;;;5.12;4.62;;;;;;;32.91;28.14;98049.72;4479527;32;20092;-69
2022/08/14 11:39:32;;;;;;;6.57;4.97;;;;;;;33.27;27.65;98048.25;4485679;31;20163;-69
2022/08/14 11:42:04;;;;;;;6.87;4.45;;;;;;;33.73;27.48;98050.75;4486191;31;20080;-69
2022/08/14 11:45:03;;;;;;;7.00;4.32;;;;;;;33.66;27.32;98036.75;4485851;31;20196;-69
2022/08/14 11:47:37;;;;;;;8.73;5.00;;;;;;;33.34;26.96;98035.84;4486136;31;20114;-69
2022/08/14 11:50:29;;;;;;;8.05;5.65;;;;;;;33.18;27.30;98039.97;4486081;31;20449;-69
2022/08/14 11:53:05;;;;;;;6.68;4.55;;;;;;;33.72;27.29;98037.44;4484992;31;20106;-69
2022/08/14 11:55:35;;;;;;;6.60;4.87;;;;;;;33.73;27.00;98031.75;4485851;32;20118;-69
2022/08/14 11:58:10;;;;;;;6.75;5.47;;;;;;;34.06;27.34;98023.31;4485845;32;20119;-69
2022/08/14 12:00:48;;;;;;;5.93;4.93;;;;;;;34.06;26.63;98017.88;4485878;32;20080;-69
2022/08/14 12:03:18;;;;;;;5.70;5.05;;;;;;;34.26;27.25;98010.34;4485721;32;20438;-69
2022/08/14 12:06:08;;;;;;;9.82;5.20;;;;;;;34.13;27.15;98007.38;4485686;31;20114;-69
2022/08/14 12:08:56;;;;;;;10.07;5.32;;;;;;;34.28;27.05;98010.84;4485574;32;20111;-69
2022/08/14 12:11:37;;;;;;;5.90;5.30;;;;;;;34.52;27.46;98005.06;4485789;31;20598;-69
2022/08/14 12:14:12;;;;;;;7.57;5.20;;;;;;;33.68;27.42;98001.16;4485794;31;20164;-69
2022/08/14 12:17:01;;;;;;;9.60;5.20;;;;;;;34.30;26.67;98003.19;4485608;31;20442;-69
2022/08/14 12:19:28;;;;;;;6.35;5.37;;;;;;;34.36;25.82;98006.56;4485740;32;20510;-69
2022/08/14 12:22:01;;;;;;;7.10;5.53;;;;;;;34.65;26.22;98000.59;4484571;32;20502;-69
2022/08/14 12:24:29;;;;;;;10.07;4.70;;;;;;;34.04;27.64;98005.75;4485773;32;20081;-69
2022/08/14 12:27:03;;;;;;;4.85;4.37;;;;;;;33.87;26.14;97998.25;4485859;31;20088;-69